sensor_id;sensor_type;location;lat;lon;timestamp;pressure;altitude;pressure_sealevel;temperature;humidity
38912;BME280;28444;48.056;14.408;2023-03-03T00:01:00;97609.78;;;1.87;83.62
38912;BME280;28444;48.056;14.408;2023-03-03T00:03:27;97608.81;;;1.84;83.40
38912;BME280;28444;48.056;14.408;2023-03-03T00:05:54;97619.63;;;1.84;84.14
38912;BME280;28444;48.056;14.408;2023-03-03T00:08:21;97620.59;;;1.81;83.90
38912;BME280;28444;48.056;14.408;2023-03-03T00:10:48;97621.59;;;1.84;83.75
38912;BME280;28444;48.056;14.408;2023-03-03T00:13:18;97621.84;;;1.80;82.97
38912;BME280;28444;48.056;14.408;2023-03-03T00:15:45;97629.69;;;1.84;83.10
38912;BME280;28444;48.056;14.408;2023-03-03T00:21:03;97623.13;;;1.74;83.64
38912;BME280;28444;48.056;14.408;2023-03-03T00:23:40;97634.91;;;1.71;83.37
38912;BME280;28444;48.056;14.408;2023-03-03T00:26:30;97641.31;;;1.67;84.30
38912;BME280;28444;48.056;14.408;2023-03-03T00:29:00;97640.41;;;1.48;85.25
38912;BME280;28444;48.056;14.408;2023-03-03T00:31:34;97636.78;;;1.46;85.19
38912;BME280;28444;48.056;14.408;2023-03-03T00:34:25;97636.50;;;1.49;84.97
38912;BME280;28444;48.056;14.408;2023-03-03T00:36:57;97631.72;;;1.31;85.48
38912;BME280;28444;48.056;14.408;2023-03-03T00:39:34;97637.56;;;1.35;85.77
38912;BME280;28444;48.056;14.408;2023-03-03T00:42:04;97638.28;;;1.35;85.22
38912;BME280;28444;48.056;14.408;2023-03-03T00:44:56;97642.91;;;1.40;85.47
38912;BME280;28444;48.056;14.408;2023-03-03T00:47:34;97636.53;;;1.43;85.70
38912;BME280;28444;48.056;14.408;2023-03-03T00:50:32;97645.06;;;1.53;85.03
38912;BME280;28444;48.056;14.408;2023-03-03T00:53:10;97652.09;;;1.67;84.33
38912;BME280;28444;48.056;14.408;2023-03-03T00:55:37;97648.38;;;1.71;83.19
38912;BME280;28444;48.056;14.408;2023-03-03T00:58:04;97645.69;;;1.71;83.78
38912;BME280;28444;48.056;14.408;2023-03-03T01:00:31;97649.41;;;1.67;84.05
38912;BME280;28444;48.056;14.408;2023-03-03T01:03:02;97653.09;;;1.59;84.42
38912;BME280;28444;48.056;14.408;2023-03-03T01:05:29;97645.13;;;1.42;85.17
38912;BME280;28444;48.056;14.408;2023-03-03T01:07:56;97641.72;;;1.30;85.54
38912;BME280;28444;48.056;14.408;2023-03-03T01:10:23;97641.25;;;1.32;85.52
38912;BME280;28444;48.056;14.408;2023-03-03T01:12:51;97639.78;;;1.31;86.22
38912;BME280;28444;48.056;14.408;2023-03-03T01:15:18;97635.34;;;1.33;85.71
38912;BME280;28444;48.056;14.408;2023-03-03T01:17:45;97639.03;;;1.30;85.33
38912;BME280;28444;48.056;14.408;2023-03-03T01:20:13;97639.03;;;1.30;85.60
38912;BME280;28444;48.056;14.408;2023-03-03T01:22:40;97641.00;;;1.30;85.42
38912;BME280;28444;48.056;14.408;2023-03-03T01:25:07;97634.66;;;1.27;86.19
38912;BME280;28444;48.056;14.408;2023-03-03T01:27:34;97636.34;;;1.30;86.04
38912;BME280;28444;48.056;14.408;2023-03-03T01:30:03;97636.19;;;1.11;86.28
38912;BME280;28444;48.056;14.408;2023-03-03T01:32:30;97629.38;;;0.99;86.41
38912;BME280;28444;48.056;14.408;2023-03-03T01:34:57;97632.28;;;1.07;86.62
38912;BME280;28444;48.056;14.408;2023-03-03T01:37:23;97634.94;;;1.12;86.69
38912;BME280;28444;48.056;14.408;2023-03-03T01:39:52;97635.66;;;1.18;85.99
38912;BME280;28444;48.056;14.408;2023-03-03T01:42:19;97634.69;;;1.22;85.77
38912;BME280;28444;48.056;14.408;2023-03-03T01:44:46;97638.34;;;1.24;85.77
38912;BME280;28444;48.056;14.408;2023-03-03T01:47:21;97642.50;;;1.31;85.90
38912;BME280;28444;48.056;14.408;2023-03-03T01:49:59;97643.22;;;1.26;85.51
38912;BME280;28444;48.056;14.408;2023-03-03T01:52:37;97644.50;;;1.13;86.35
38912;BME280;28444;48.056;14.408;2023-03-03T01:55:27;97642.13;;;0.93;87.88
38912;BME280;28444;48.056;14.408;2023-03-03T01:57:58;97648.31;;;0.77;89.22
38912;BME280;28444;48.056;14.408;2023-03-03T02:00:26;97650.00;;;0.74;89.31
38912;BME280;28444;48.056;14.408;2023-03-03T02:02:54;97641.94;;;0.74;89.44
38912;BME280;28444;48.056;14.408;2023-03-03T02:05:21;97645.34;;;0.80;89.09
38912;BME280;28444;48.056;14.408;2023-03-03T02:07:48;97651.94;;;0.79;89.65
38912;BME280;28444;48.056;14.408;2023-03-03T02:10:17;97651.69;;;0.88;90.06
38912;BME280;28444;48.056;14.408;2023-03-03T02:12:48;97653.16;;;0.95;89.95
38912;BME280;28444;48.056;14.408;2023-03-03T02:15:17;97651.66;;;1.00;89.07
38912;BME280;28444;48.056;14.408;2023-03-03T02:17:46;97650.94;;;0.99;87.67
38912;BME280;28444;48.056;14.408;2023-03-03T02:20:24;97656.28;;;1.05;88.06
38912;BME280;28444;48.056;14.408;2023-03-03T02:23:14;97653.84;;;1.01;87.24
38912;BME280;28444;48.056;14.408;2023-03-03T02:26:07;97656.53;;;1.01;87.83
38912;BME280;28444;48.056;14.408;2023-03-03T02:28:37;97667.78;;;1.05;87.84
38912;BME280;28444;48.056;14.408;2023-03-03T02:31:06;97660.00;;;0.96;87.26
38912;BME280;28444;48.056;14.408;2023-03-03T02:33:36;97653.88;;;0.95;87.84
38912;BME280;28444;48.056;14.408;2023-03-03T02:36:03;97651.44;;;0.92;87.60
38912;BME280;28444;48.056;14.408;2023-03-03T02:41:45;97645.50;;;1.05;87.47
38912;BME280;28444;48.056;14.408;2023-03-03T02:44:18;97646.97;;;1.11;86.82
38912;BME280;28444;48.056;14.408;2023-03-03T02:46:46;97646.69;;;1.20;86.18
38912;BME280;28444;48.056;14.408;2023-03-03T02:49:16;97641.06;;;1.18;85.90
38912;BME280;28444;48.056;14.408;2023-03-03T02:51:43;97650.84;;;1.22;86.00
38912;BME280;28444;48.056;14.408;2023-03-03T02:54:12;97655.25;;;1.19;85.91
38912;BME280;28444;48.056;14.408;2023-03-03T02:56:39;97653.28;;;1.25;85.55
38912;BME280;28444;48.056;14.408;2023-03-03T02:59:06;97645.72;;;1.18;86.11
38912;BME280;28444;48.056;14.408;2023-03-03T03:01:33;97642.81;;;1.05;86.49
38912;BME280;28444;48.056;14.408;2023-03-03T03:04:08;97644.09;;;0.98;86.38
38912;BME280;28444;48.056;14.408;2023-03-03T03:06:35;97658.53;;;0.95;86.92
38912;BME280;28444;48.056;14.408;2023-03-03T03:09:04;97656.09;;;0.86;87.53
38912;BME280;28444;48.056;14.408;2023-03-03T03:11:31;97658.81;;;0.75;87.81
38912;BME280;28444;48.056;14.408;2023-03-03T03:13:58;97657.09;;;0.71;88.39
38912;BME280;28444;48.056;14.408;2023-03-03T03:16:24;97655.38;;;0.68;89.08
38912;BME280;28444;48.056;14.408;2023-03-03T03:18:51;97653.69;;;0.77;89.76
38912;BME280;28444;48.056;14.408;2023-03-03T03:21:18;97655.13;;;0.89;89.47
38912;BME280;28444;48.056;14.408;2023-03-03T03:23:45;97649.91;;;1.08;88.01
38912;BME280;28444;48.056;14.408;2023-03-03T03:26:11;97652.34;;;1.11;87.24
38912;BME280;28444;48.056;14.408;2023-03-03T03:28:39;97654.06;;;1.14;87.59
38912;BME280;28444;48.056;14.408;2023-03-03T03:31:06;97656.25;;;1.16;87.79
38912;BME280;28444;48.056;14.408;2023-03-03T03:33:33;97651.63;;;1.05;87.26
38912;BME280;28444;48.056;14.408;2023-03-03T03:36:01;97650.41;;;1.06;87.70
38912;BME280;28444;48.056;14.408;2023-03-03T03:38:28;97650.84;;;1.16;88.58
38912;BME280;28444;48.056;14.408;2023-03-03T03:40:55;97651.56;;;1.22;87.82
38912;BME280;28444;48.056;14.408;2023-03-03T03:43:22;97655.00;;;1.23;88.83
38912;BME280;28444;48.056;14.408;2023-03-03T03:45:48;97655.16;;;1.41;88.20
38912;BME280;28444;48.056;14.408;2023-03-03T03:48:16;97655.16;;;1.41;89.38
38912;BME280;28444;48.056;14.408;2023-03-03T03:50:43;97649.03;;;1.41;88.74
38912;BME280;28444;48.056;14.408;2023-03-03T03:53:09;97657.63;;;1.39;89.13
38912;BME280;28444;48.056;14.408;2023-03-03T03:55:36;97648.56;;;1.42;88.94
38912;BME280;28444;48.056;14.408;2023-03-03T03:58:02;97653.16;;;1.53;88.09
38912;BME280;28444;48.056;14.408;2023-03-03T04:00:29;97652.38;;;1.58;88.09
38912;BME280;28444;48.056;14.408;2023-03-03T04:02:56;97647.69;;;1.64;87.72
38912;BME280;28444;48.056;14.408;2023-03-03T04:05:23;97655.78;;;1.64;87.53
38912;BME280;28444;48.056;14.408;2023-03-03T04:07:50;97654.78;;;1.67;87.58
38912;BME280;28444;48.056;14.408;2023-03-03T04:10:17;97662.34;;;1.75;86.74
38912;BME280;28444;48.056;14.408;2023-03-03T04:12:43;97665.72;;;1.81;86.55
38912;BME280;28444;48.056;14.408;2023-03-03T04:15:13;97662.63;;;1.65;87.84
38912;BME280;28444;48.056;14.408;2023-03-03T04:17:40;97660.00;;;1.60;87.46
38912;BME280;28444;48.056;14.408;2023-03-03T04:20:08;97661.72;;;1.52;87.69
38912;BME280;28444;48.056;14.408;2023-03-03T04:22:36;97676.94;;;1.49;88.19
38912;BME280;28444;48.056;14.408;2023-03-03T04:25:04;97675.66;;;1.56;87.92
38912;BME280;28444;48.056;14.408;2023-03-03T04:27:32;97674.47;;;1.51;88.17
38912;BME280;28444;48.056;14.408;2023-03-03T04:29:59;97680.59;;;1.52;87.79
38912;BME280;28444;48.056;14.408;2023-03-03T04:32:25;97684.97;;;1.60;87.23
38912;BME280;28444;48.056;14.408;2023-03-03T04:34:53;97690.38;;;1.60;88.62
38912;BME280;28444;48.056;14.408;2023-03-03T04:37:33;97690.84;;;1.64;88.27
38912;BME280;28444;48.056;14.408;2023-03-03T04:39:59;97684.47;;;1.62;88.34
38912;BME280;28444;48.056;14.408;2023-03-03T04:42:26;97692.50;;;1.73;89.29
38912;BME280;28444;48.056;14.408;2023-03-03T04:44:54;97679.72;;;1.79;90.07
38912;BME280;28444;48.056;14.408;2023-03-03T04:47:21;97690.31;;;1.72;90.13
38912;BME280;28444;48.056;14.408;2023-03-03T04:49:47;97687.41;;;1.64;90.54
38912;BME280;28444;48.056;14.408;2023-03-03T04:52:14;97689.59;;;1.65;90.95
38912;BME280;28444;48.056;14.408;2023-03-03T04:54:41;97683.22;;;1.63;90.77
38912;BME280;28444;48.056;14.408;2023-03-03T04:57:07;97689.59;;;1.65;91.57
38912;BME280;28444;48.056;14.408;2023-03-03T04:59:34;97684.72;;;1.64;91.65
38912;BME280;28444;48.056;14.408;2023-03-03T05:02:02;97687.88;;;1.68;91.35
38912;BME280;28444;48.056;14.408;2023-03-03T05:04:30;97702.81;;;1.75;90.03
38912;BME280;28444;48.056;14.408;2023-03-03T05:06:57;97697.41;;;1.75;90.64
38912;BME280;28444;48.056;14.408;2023-03-03T05:09:23;97693.50;;;1.70;90.23
38912;BME280;28444;48.056;14.408;2023-03-03T05:11:50;97698.41;;;1.72;89.49
38912;BME280;28444;48.056;14.408;2023-03-03T05:14:17;97698.66;;;1.68;89.42
38912;BME280;28444;48.056;14.408;2023-03-03T05:16:44;97697.16;;;1.73;88.97
38912;BME280;28444;48.056;14.408;2023-03-03T05:19:11;97694.22;;;1.71;90.19
38912;BME280;28444;48.056;14.408;2023-03-03T05:21:37;97702.84;;;1.63;89.71
38912;BME280;28444;48.056;14.408;2023-03-03T05:24:12;97700.13;;;1.69;89.42
38912;BME280;28444;48.056;14.408;2023-03-03T05:26:39;97696.91;;;1.71;89.32
38912;BME280;28444;48.056;14.408;2023-03-03T05:29:07;97707.94;;;1.78;88.07
38912;BME280;28444;48.056;14.408;2023-03-03T05:31:34;97704.47;;;1.78;88.55
38912;BME280;28444;48.056;14.408;2023-03-03T05:34:01;97709.13;;;1.83;87.86
38912;BME280;28444;48.056;14.408;2023-03-03T05:36:28;97715.22;;;1.89;87.87
38912;BME280;28444;48.056;14.408;2023-03-03T05:38:54;97713.25;;;1.89;87.68
38912;BME280;28444;48.056;14.408;2023-03-03T05:41:21;97719.34;;;1.96;86.94
38912;BME280;28444;48.056;14.408;2023-03-03T05:43:48;97716.38;;;1.99;86.69
38912;BME280;28444;48.056;14.408;2023-03-03T05:46:15;97720.81;;;1.97;87.34
38912;BME280;28444;48.056;14.408;2023-03-03T05:48:41;97723.53;;;1.97;87.14
38912;BME280;28444;48.056;14.408;2023-03-03T05:51:08;97733.59;;;1.96;86.80
38912;BME280;28444;48.056;14.408;2023-03-03T05:53:35;97729.13;;;1.99;87.10
38912;BME280;28444;48.056;14.408;2023-03-03T05:56:02;97724.28;;;1.91;88.74
38912;BME280;28444;48.056;14.408;2023-03-03T05:58:28;97725.00;;;1.92;88.93
38912;BME280;28444;48.056;14.408;2023-03-03T06:00:55;97728.72;;;1.83;89.04
38912;BME280;28444;48.056;14.408;2023-03-03T06:03:22;97728.22;;;1.85;89.76
38912;BME280;28444;48.056;14.408;2023-03-03T06:05:49;97728.47;;;1.87;89.72
38912;BME280;28444;48.056;14.408;2023-03-03T06:08:15;97733.59;;;1.96;88.78
38912;BME280;28444;48.056;14.408;2023-03-03T06:10:42;97733.50;;;2.07;88.21
38912;BME280;28444;48.056;14.408;2023-03-03T06:13:09;97736.88;;;2.13;87.14
38912;BME280;28444;48.056;14.408;2023-03-03T06:15:35;97738.13;;;2.18;87.11
38912;BME280;28444;48.056;14.408;2023-03-03T06:18:03;97741.28;;;2.16;87.80
38912;BME280;28444;48.056;14.408;2023-03-03T06:20:30;97750.38;;;2.13;87.78
38912;BME280;28444;48.056;14.408;2023-03-03T06:22:57;97745.69;;;2.20;87.82
38912;BME280;28444;48.056;14.408;2023-03-03T06:25:23;97744.00;;;2.16;87.39
38912;BME280;28444;48.056;14.408;2023-03-03T06:27:50;97744.91;;;2.25;88.37
38912;BME280;28444;48.056;14.408;2023-03-03T06:30:17;97749.66;;;2.13;88.07
38912;BME280;28444;48.056;14.408;2023-03-03T06:32:44;97753.31;;;2.15;88.06
38912;BME280;28444;48.056;14.408;2023-03-03T06:35:11;97749.44;;;2.11;88.10
38912;BME280;28444;48.056;14.408;2023-03-03T06:37:38;97754.59;;;2.09;88.99
38912;BME280;28444;48.056;14.408;2023-03-03T06:40:05;97765.91;;;2.02;89.18
38912;BME280;28444;48.056;14.408;2023-03-03T06:42:32;97769.59;;;1.99;88.77
38912;BME280;28444;48.056;14.408;2023-03-03T06:44:59;97781.09;;;2.05;88.52
38912;BME280;28444;48.056;14.408;2023-03-03T06:47:26;97784.25;;;2.09;88.78
38912;BME280;28444;48.056;14.408;2023-03-03T06:49:52;97787.22;;;2.05;89.07
38912;BME280;28444;48.056;14.408;2023-03-03T06:52:23;97773.22;;;2.12;88.70
38912;BME280;28444;48.056;14.408;2023-03-03T06:54:56;97776.09;;;2.20;87.94
38912;BME280;28444;48.056;14.408;2023-03-03T06:57:31;97792.00;;;2.29;88.18
38912;BME280;28444;48.056;14.408;2023-03-03T07:00:15;97795.91;;;2.34;87.30
38912;BME280;28444;48.056;14.408;2023-03-03T07:02:43;97792.69;;;2.35;87.40
38912;BME280;28444;48.056;14.408;2023-03-03T07:05:13;97793.53;;;2.19;87.43
38912;BME280;28444;48.056;14.408;2023-03-03T07:07:40;97794.72;;;2.29;88.17
38912;BME280;28444;48.056;14.408;2023-03-03T07:10:22;97788.81;;;2.31;88.27
38912;BME280;28444;48.056;14.408;2023-03-03T07:12:49;97789.78;;;2.28;88.38
38912;BME280;28444;48.056;14.408;2023-03-03T07:15:23;97788.59;;;2.29;88.29
38912;BME280;28444;48.056;14.408;2023-03-03T07:17:55;97790.94;;;2.44;88.32
38912;BME280;28444;48.056;14.408;2023-03-03T07:20:31;97800.00;;;2.46;88.12
38912;BME280;28444;48.056;14.408;2023-03-03T07:23:08;97799.53;;;2.42;87.28
38912;BME280;28444;48.056;14.408;2023-03-03T07:25:44;97800.94;;;2.54;87.94
38912;BME280;28444;48.056;14.408;2023-03-03T07:28:29;97814.19;;;2.52;87.40
38912;BME280;28444;48.056;14.408;2023-03-03T07:30:58;97810.19;;;2.64;87.42
38912;BME280;28444;48.056;14.408;2023-03-03T07:36:03;97817.53;;;2.70;87.67
38912;BME280;28444;48.056;14.408;2023-03-03T07:38:41;97822.38;;;2.77;87.31
38912;BME280;28444;48.056;14.408;2023-03-03T07:41:16;97823.06;;;2.83;86.77
38912;BME280;28444;48.056;14.408;2023-03-03T07:43:50;97824.03;;;2.85;86.73
38912;BME280;28444;48.056;14.408;2023-03-03T07:46:35;97832.09;;;2.91;86.42
38912;BME280;28444;48.056;14.408;2023-03-03T07:49:31;97835.94;;;3.01;86.13
38912;BME280;28444;48.056;14.408;2023-03-03T07:52:00;97839.31;;;3.07;85.88
38912;BME280;28444;48.056;14.408;2023-03-03T07:54:38;97848.56;;;3.18;85.71
38912;BME280;28444;48.056;14.408;2023-03-03T07:57:34;97844.59;;;3.24;85.21
38912;BME280;28444;48.056;14.408;2023-03-03T08:03:16;97840.22;;;3.46;84.89
38912;BME280;28444;48.056;14.408;2023-03-03T08:05:48;97834.63;;;3.38;84.93
38912;BME280;28444;48.056;14.408;2023-03-03T08:08:27;97834.53;;;3.49;84.66
38912;BME280;28444;48.056;14.408;2023-03-03T08:10:57;97837.97;;;3.50;83.86
38912;BME280;28444;48.056;14.408;2023-03-03T08:13:37;97834.63;;;3.62;83.59
38912;BME280;28444;48.056;14.408;2023-03-03T08:16:34;97834.84;;;3.65;83.21
38912;BME280;28444;48.056;14.408;2023-03-03T08:19:04;97829.94;;;3.63;83.50
38912;BME280;28444;48.056;14.408;2023-03-03T08:21:32;97834.13;;;3.64;83.53
38912;BME280;28444;48.056;14.408;2023-03-03T08:24:00;97830.91;;;3.66;83.89
38912;BME280;28444;48.056;14.408;2023-03-03T08:26:27;97835.88;;;3.61;83.48
38912;BME280;28444;48.056;14.408;2023-03-03T08:28:54;97832.31;;;3.72;83.49
38912;BME280;28444;48.056;14.408;2023-03-03T08:31:21;97827.50;;;3.84;82.81
38912;BME280;28444;48.056;14.408;2023-03-03T08:34:06;97829.94;;;3.88;82.64
38912;BME280;28444;48.056;14.408;2023-03-03T08:36:33;97825.91;;;3.94;82.60
38912;BME280;28444;48.056;14.408;2023-03-03T08:39:00;97822.88;;;4.03;82.36
38912;BME280;28444;48.056;14.408;2023-03-03T08:41:27;97823.66;;;4.17;81.17
38912;BME280;28444;48.056;14.408;2023-03-03T08:43:54;97815.47;;;4.23;80.88
38912;BME280;28444;48.056;14.408;2023-03-03T08:46:21;97827.41;;;4.33;80.58
38912;BME280;28444;48.056;14.408;2023-03-03T08:48:47;97823.88;;;4.38;80.20
38912;BME280;28444;48.056;14.408;2023-03-03T08:51:15;97819.63;;;4.43;78.99
38912;BME280;28444;48.056;14.408;2023-03-03T08:53:44;97826.81;;;4.40;79.08
38912;BME280;28444;48.056;14.408;2023-03-03T08:56:11;97828.84;;;4.53;78.32
38912;BME280;28444;48.056;14.408;2023-03-03T08:58:37;97840.06;;;4.44;78.84
38912;BME280;28444;48.056;14.408;2023-03-03T09:01:25;97827.97;;;4.45;79.17
38912;BME280;28444;48.056;14.408;2023-03-03T09:03:51;97834.97;;;4.53;78.52
38912;BME280;28444;48.056;14.408;2023-03-03T09:06:18;97823.34;;;4.58;77.94
38912;BME280;28444;48.056;14.408;2023-03-03T09:08:45;97846.13;;;4.69;77.49
38912;BME280;28444;48.056;14.408;2023-03-03T09:11:12;97842.06;;;4.75;77.98
38912;BME280;28444;48.056;14.408;2023-03-03T09:13:39;97845.28;;;4.74;77.24
38912;BME280;28444;48.056;14.408;2023-03-03T09:16:15;97841.91;;;4.87;76.84
38912;BME280;28444;48.056;14.408;2023-03-03T09:18:42;97846.16;;;4.82;76.70
38912;BME280;28444;48.056;14.408;2023-03-03T09:21:22;97846.69;;;4.94;75.96
38912;BME280;28444;48.056;14.408;2023-03-03T09:23:59;97844.75;;;4.94;76.42
38912;BME280;28444;48.056;14.408;2023-03-03T09:26:38;97834.41;;;4.93;76.26
38912;BME280;28444;48.056;14.408;2023-03-03T09:29:24;97843.50;;;4.95;75.96
38912;BME280;28444;48.056;14.408;2023-03-03T09:34:41;97846.09;;;5.01;75.41
38912;BME280;28444;48.056;14.408;2023-03-03T09:37:17;97846.88;;;5.15;75.64
38912;BME280;28444;48.056;14.408;2023-03-03T09:39:48;97845.53;;;5.21;74.99
38912;BME280;28444;48.056;14.408;2023-03-03T09:47:52;97836.25;;;5.30;73.47
38912;BME280;28444;48.056;14.408;2023-03-03T09:56:16;97852.78;;;5.59;72.71
38912;BME280;28444;48.056;14.408;2023-03-03T10:02:21;97852.59;;;5.83;69.91
38912;BME280;28444;48.056;14.408;2023-03-03T10:05:15;97850.31;;;5.74;70.47
38912;BME280;28444;48.056;14.408;2023-03-03T10:07:54;97850.00;;;5.77;71.39
38912;BME280;28444;48.056;14.408;2023-03-03T10:10:42;97844.88;;;6.00;70.30
38912;BME280;28444;48.056;14.408;2023-03-03T10:13:47;97841.00;;;6.09;69.86
38912;BME280;28444;48.056;14.408;2023-03-03T10:18:57;97861.34;;;6.29;66.86
38912;BME280;28444;48.056;14.408;2023-03-03T10:21:35;97859.25;;;6.22;67.82
38912;BME280;28444;48.056;14.408;2023-03-03T10:24:30;97865.72;;;6.32;67.40
38912;BME280;28444;48.056;14.408;2023-03-03T10:32:58;97863.97;;;6.56;66.26
38912;BME280;28444;48.056;14.408;2023-03-03T10:42:34;97856.47;;;6.48;67.94
38912;BME280;28444;48.056;14.408;2023-03-03T10:45:52;97858.88;;;6.86;68.50
38912;BME280;28444;48.056;14.408;2023-03-03T10:48:54;97855.16;;;6.76;66.78
38912;BME280;28444;48.056;14.408;2023-03-03T10:54:42;97852.97;;;6.95;66.49
38912;BME280;28444;48.056;14.408;2023-03-03T10:57:41;97846.19;;;6.89;67.00
38912;BME280;28444;48.056;14.408;2023-03-03T11:00:30;97849.38;;;7.00;66.28
38912;BME280;28444;48.056;14.408;2023-03-03T11:03:45;97853.75;;;7.04;65.94
38912;BME280;28444;48.056;14.408;2023-03-03T11:07:02;97844.69;;;7.01;66.17
38912;BME280;28444;48.056;14.408;2023-03-03T11:16:16;97824.72;;;7.19;65.80
38912;BME280;28444;48.056;14.408;2023-03-03T11:19:19;97822.78;;;7.56;64.63
38912;BME280;28444;48.056;14.408;2023-03-03T11:22:20;97817.81;;;7.47;65.68
38912;BME280;28444;48.056;14.408;2023-03-03T11:25:20;97814.03;;;7.50;65.90
38912;BME280;28444;48.056;14.408;2023-03-03T11:28:26;97807.00;;;7.62;64.68
38912;BME280;28444;48.056;14.408;2023-03-03T11:37:42;97798.28;;;7.92;63.33
38912;BME280;28444;48.056;14.408;2023-03-03T11:40:26;97791.19;;;7.89;62.01
38912;BME280;28444;48.056;14.408;2023-03-03T11:46:08;97786.25;;;7.88;62.42
38912;BME280;28444;48.056;14.408;2023-03-03T11:51:53;97784.69;;;8.00;61.47
38912;BME280;28444;48.056;14.408;2023-03-03T11:54:29;97779.63;;;8.04;60.53
38912;BME280;28444;48.056;14.408;2023-03-03T12:00:36;97782.69;;;7.93;60.05
38912;BME280;28444;48.056;14.408;2023-03-03T12:03:33;97774.88;;;7.97;61.76
38912;BME280;28444;48.056;14.408;2023-03-03T12:09:32;97778.81;;;8.32;62.11
38912;BME280;28444;48.056;14.408;2023-03-03T12:12:27;97780.63;;;8.30;61.56
38912;BME280;28444;48.056;14.408;2023-03-03T12:32:48;97751.41;;;8.38;58.83
38912;BME280;28444;48.056;14.408;2023-03-03T12:36:11;97758.69;;;8.43;59.79
38912;BME280;28444;48.056;14.408;2023-03-03T12:38:39;97755.44;;;8.52;60.85
38912;BME280;28444;48.056;14.408;2023-03-03T12:41:20;97750.31;;;8.41;59.65
38912;BME280;28444;48.056;14.408;2023-03-03T12:43:59;97757.81;;;8.63;58.63
38912;BME280;28444;48.056;14.408;2023-03-03T12:46:39;97753.63;;;8.70;58.75
38912;BME280;28444;48.056;14.408;2023-03-03T12:49:08;97754.72;;;8.67;59.35
38912;BME280;28444;48.056;14.408;2023-03-03T12:51:49;97743.84;;;8.82;58.76
38912;BME280;28444;48.056;14.408;2023-03-03T12:57:08;97730.72;;;8.88;58.50
38912;BME280;28444;48.056;14.408;2023-03-03T13:05:39;97734.91;;;8.74;57.55
38912;BME280;28444;48.056;14.408;2023-03-03T13:08:39;97735.09;;;8.61;58.98
38912;BME280;28444;48.056;14.408;2023-03-03T13:14:30;97734.72;;;8.57;58.76
38912;BME280;28444;48.056;14.408;2023-03-03T13:17:14;97732.91;;;8.75;58.61
38912;BME280;28444;48.056;14.408;2023-03-03T13:19:48;97721.81;;;8.88;58.43
38912;BME280;28444;48.056;14.408;2023-03-03T13:22:43;97723.63;;;8.93;59.95
38912;BME280;28444;48.056;14.408;2023-03-03T13:30:56;97724.88;;;9.07;58.88
38912;BME280;28444;48.056;14.408;2023-03-03T13:33:34;97726.88;;;9.07;58.84
38912;BME280;28444;48.056;14.408;2023-03-03T13:36:06;97724.16;;;8.99;58.63
38912;BME280;28444;48.056;14.408;2023-03-03T13:38:45;97727.78;;;9.17;57.62
38912;BME280;28444;48.056;14.408;2023-03-03T13:41:24;97720.16;;;9.23;57.00
38912;BME280;28444;48.056;14.408;2023-03-03T13:43:59;97721.41;;;9.14;56.08
38912;BME280;28444;48.056;14.408;2023-03-03T13:46:39;97723.78;;;9.18;57.72
38912;BME280;28444;48.056;14.408;2023-03-03T13:49:35;97717.06;;;9.04;57.28
38912;BME280;28444;48.056;14.408;2023-03-03T13:52:11;97722.16;;;9.15;56.32
38912;BME280;28444;48.056;14.408;2023-03-03T13:55:08;97711.41;;;9.17;55.64
38912;BME280;28444;48.056;14.408;2023-03-03T14:01:00;97706.72;;;8.95;58.39
38912;BME280;28444;48.056;14.408;2023-03-03T14:04:23;97711.09;;;8.98;56.33
38912;BME280;28444;48.056;14.408;2023-03-03T14:06:39;97697.66;;;8.77;55.25
38912;BME280;28444;48.056;14.408;2023-03-03T14:09:38;97701.66;;;8.91;56.32
38912;BME280;28444;48.056;14.408;2023-03-03T14:15:27;97693.63;;;8.85;56.27
38912;BME280;28444;48.056;14.408;2023-03-03T14:18:35;97693.81;;;9.03;55.93
38912;BME280;28444;48.056;14.408;2023-03-03T14:21:15;97693.09;;;8.95;57.69
38912;BME280;28444;48.056;14.408;2023-03-03T14:23:59;97686.91;;;8.94;57.21
38912;BME280;28444;48.056;14.408;2023-03-03T14:26:27;97684.16;;;9.02;57.13
38912;BME280;28444;48.056;14.408;2023-03-03T14:29:18;97685.06;;;8.97;56.17
38912;BME280;28444;48.056;14.408;2023-03-03T14:31:46;97679.13;;;8.83;57.30
38912;BME280;28444;48.056;14.408;2023-03-03T14:34:25;97683.09;;;8.74;59.22
38912;BME280;28444;48.056;14.408;2023-03-03T14:37:23;97687.13;;;8.73;58.21
38912;BME280;28444;48.056;14.408;2023-03-03T14:40:15;97670.94;;;8.75;59.50
38912;BME280;28444;48.056;14.408;2023-03-03T14:43:01;97686.38;;;8.80;58.85
38912;BME280;28444;48.056;14.408;2023-03-03T14:45:36;97677.09;;;8.83;58.26
38912;BME280;28444;48.056;14.408;2023-03-03T14:48:18;97677.81;;;8.91;59.32
38912;BME280;28444;48.056;14.408;2023-03-03T14:51:26;97679.47;;;8.87;59.79
38912;BME280;28444;48.056;14.408;2023-03-03T14:53:56;97682.38;;;8.81;59.00
38912;BME280;28444;48.056;14.408;2023-03-03T14:56:33;97686.56;;;8.82;59.58
38912;BME280;28444;48.056;14.408;2023-03-03T14:59:18;97683.47;;;8.78;59.67
38912;BME280;28444;48.056;14.408;2023-03-03T15:01:46;97677.28;;;8.70;60.66
38912;BME280;28444;48.056;14.408;2023-03-03T15:04:26;97678.75;;;8.79;60.52
38912;BME280;28444;48.056;14.408;2023-03-03T15:06:54;97679.09;;;8.67;60.88
38912;BME280;28444;48.056;14.408;2023-03-03T15:09:37;97675.28;;;8.71;60.67
38912;BME280;28444;48.056;14.408;2023-03-03T15:12:35;97674.94;;;8.66;62.11
38912;BME280;28444;48.056;14.408;2023-03-03T15:15:23;97675.13;;;8.68;60.48
38912;BME280;28444;48.056;14.408;2023-03-03T15:18:11;97672.75;;;8.65;61.15
38912;BME280;28444;48.056;14.408;2023-03-03T15:20:49;97679.31;;;8.62;61.45
38912;BME280;28444;48.056;14.408;2023-03-03T15:23:55;97676.03;;;8.56;61.87
38912;BME280;28444;48.056;14.408;2023-03-03T15:26:46;97678.19;;;8.42;63.01
38912;BME280;28444;48.056;14.408;2023-03-03T15:29:40;97678.94;;;8.58;62.21
38912;BME280;28444;48.056;14.408;2023-03-03T15:35:32;97684.56;;;8.52;63.18
38912;BME280;28444;48.056;14.408;2023-03-03T15:41:21;97679.63;;;8.35;63.81